createdAt,value
2018-02-24T00:00:26.592Z,56.80
2018-02-24T00:02:55.583Z,58.20
2018-02-24T00:05:24.148Z,57.40
2018-02-24T00:07:53.144Z,57.60
2018-02-24T00:10:22.217Z,57.50
2018-02-24T00:12:51.596Z,57.70
2018-02-24T00:15:21.332Z,57.50
2018-02-24T00:17:50.597Z,57.40
2018-02-24T00:20:20.909Z,57.50
2018-02-24T00:25:18.588Z,57.00
2018-02-24T00:27:47.970Z,57.70
2018-02-24T00:30:16.191Z,57.00
2018-02-24T00:32:44.820Z,57.00
2018-02-24T00:35:14.468Z,57.30
2018-02-24T00:37:44.217Z,57.60
2018-02-24T00:40:12.472Z,57.90
2018-02-24T00:42:40.872Z,57.90
2018-02-24T00:45:09.116Z,57.70
2018-02-24T00:47:37.340Z,58.00
2018-02-24T00:50:05.929Z,58.20
2018-02-24T00:52:34.925Z,58.30
2018-02-24T00:55:03.912Z,58.00
2018-02-24T00:57:33.071Z,58.20
2018-02-24T01:00:02.074Z,58.80
2018-02-24T01:02:30.304Z,57.80
2018-02-24T01:04:58.716Z,58.50
2018-02-24T01:07:26.944Z,59.00
2018-02-24T01:09:55.936Z,58.20
2018-02-24T01:12:25.037Z,58.80
2018-02-24T01:14:54.768Z,58.40
2018-02-24T01:17:24.157Z,58.90
2018-02-24T01:19:53.021Z,58.50
2018-02-24T01:22:22.385Z,58.60
2018-02-24T01:27:21.204Z,58.40
2018-02-24T01:29:50.567Z,58.40
2018-02-24T01:32:19.933Z,59.10
2018-02-24T01:34:49.932Z,58.50
2018-02-24T01:37:18.929Z,58.70
2018-02-24T01:39:47.927Z,59.30
2018-02-24T01:42:16.463Z,58.50
2018-02-24T01:47:14.168Z,58.60
2018-02-24T01:49:43.024Z,58.50
2018-02-24T01:52:12.024Z,58.60
2018-02-24T01:54:40.269Z,59.00
2018-02-24T01:57:09.109Z,59.40
2018-02-24T01:59:37.324Z,58.80
2018-02-24T02:02:06.687Z,58.20
2018-02-24T02:04:35.317Z,58.20
2018-02-24T02:07:04.304Z,58.70
2018-02-24T02:09:32.537Z,59.10
2018-02-24T02:14:30.784Z,58.70
2018-02-24T02:16:59.008Z,58.50
2018-02-24T02:19:29.728Z,59.00
2018-02-24T02:21:58.208Z,58.80
2018-02-24T02:24:27.199Z,59.10
2018-02-24T02:26:55.804Z,58.90
2018-02-24T02:31:53.488Z,58.70
2018-02-24T02:34:22.472Z,59.10
2018-02-24T02:41:50.494Z,59.50
2018-02-24T02:44:18.729Z,59.30
2018-02-24T02:46:46.956Z,59.10
2018-02-24T02:49:17.664Z,59.50
2018-02-24T02:51:46.664Z,59.30
2018-02-24T02:54:15.300Z,59.80
2018-02-24T02:56:43.689Z,60.20
2018-02-24T02:59:12.704Z,60.30
2018-02-24T03:01:41.337Z,60.50
2018-02-24T03:04:10.254Z,61.20
2018-02-24T03:06:38.908Z,60.50
2018-02-24T03:09:07.127Z,60.80
2018-02-24T03:11:39.019Z,60.30
2018-02-24T03:14:07.236Z,61.00
2018-02-24T03:16:35.469Z,61.20
2018-02-24T03:21:38.133Z,60.80
2018-02-24T03:24:06.696Z,61.00
2018-02-24T03:26:34.944Z,60.80
2018-02-24T03:29:05.741Z,61.80
2018-02-24T03:34:04.190Z,60.90
2018-02-24T03:36:33.521Z,60.50
2018-02-24T03:39:03.256Z,60.40
2018-02-24T03:41:32.634Z,60.50
2018-02-24T03:46:30.613Z,60.20
2018-02-24T03:48:59.603Z,61.30
2018-02-24T03:51:28.939Z,61.40
2018-02-24T03:53:57.156Z,61.10
2018-02-24T03:58:56.033Z,61.90
2018-02-24T04:01:25.398Z,62.20
2018-02-24T04:06:23.999Z,61.30
2018-02-24T04:08:53.728Z,60.60
2018-02-24T04:11:22.353Z,62.00
2018-02-24T04:16:20.368Z,62.30
2018-02-24T04:18:49.722Z,62.70
2018-02-24T04:21:18.388Z,62.90
2018-02-24T04:23:46.621Z,62.10
2018-02-24T04:26:18.600Z,61.60
2018-02-24T04:28:48.319Z,61.80
2018-02-24T04:31:17.321Z,61.00
2018-02-24T04:33:45.559Z,61.20
2018-02-24T04:36:14.216Z,61.10
2018-02-24T04:41:11.917Z,61.00
2018-02-24T04:43:41.504Z,61.80
2018-02-24T04:46:09.746Z,62.50
2018-02-24T04:48:37.964Z,61.30
2018-02-24T04:53:42.676Z,60.60
2018-02-24T04:56:12.427Z,60.00
2018-02-24T04:58:40.676Z,60.50
2018-02-24T05:01:10.057Z,60.10
2018-02-24T05:03:38.285Z,60.10
2018-02-24T05:06:06.511Z,59.80
2018-02-24T05:08:35.344Z,59.40
2018-02-24T05:11:04.703Z,59.70
2018-02-24T05:13:32.940Z,59.80
2018-02-24T05:16:01.480Z,59.10
2018-02-24T05:20:59.310Z,59.40
2018-02-24T05:23:28.656Z,59.50
2018-02-24T05:25:57.275Z,59.30
2018-02-24T05:28:25.892Z,59.10
2018-02-24T05:33:25.548Z,59.80
2018-02-24T05:38:24.692Z,59.00
2018-02-24T05:40:52.915Z,59.50
2018-02-24T05:45:50.752Z,59.00
2018-02-24T05:48:18.975Z,59.60
2018-02-24T05:50:47.199Z,59.70
2018-02-24T05:53:17.191Z,59.70
2018-02-24T05:55:46.552Z,59.50
2018-02-24T06:10:44.216Z,60.00
2018-02-24T06:13:13.960Z,60.00
2018-02-24T06:15:42.664Z,60.00
2018-02-24T06:20:42.149Z,60.20
2018-02-24T06:23:11.880Z,60.50
2018-02-24T06:25:40.116Z,60.40
2018-02-24T06:28:08.349Z,60.70
2018-02-24T06:30:38.616Z,60.90
2018-02-24T06:38:08.149Z,60.70
2018-02-24T06:40:36.773Z,59.70
2018-02-24T06:43:05.001Z,60.40
2018-02-24T06:45:33.549Z,60.40
2018-02-24T06:48:02.916Z,60.00
2018-02-24T06:50:31.135Z,60.10
2018-02-24T06:53:00.667Z,59.80
2018-02-24T06:55:29.308Z,59.50
2018-02-24T06:57:58.313Z,60.30
2018-02-24T07:00:27.990Z,59.10
2018-02-24T07:02:57.729Z,59.60
2018-02-24T07:05:25.964Z,58.60
2018-02-24T07:07:54.695Z,59.10
2018-02-24T07:10:22.924Z,59.20
2018-02-24T07:12:52.285Z,59.20
2018-02-24T07:15:21.173Z,59.30
2018-02-24T07:20:18.852Z,58.50
2018-02-24T07:22:47.613Z,58.80
2018-02-24T07:25:16.605Z,58.90
2018-02-24T07:27:44.837Z,57.80
2018-02-24T07:30:13.229Z,57.90
2018-02-24T07:32:43.444Z,57.70
2018-02-24T07:35:11.680Z,57.10
2018-02-24T07:37:42.357Z,56.80
2018-02-24T07:40:10.628Z,55.90
2018-02-24T07:42:39.611Z,55.40
2018-02-24T07:45:08.568Z,54.70
2018-02-24T07:47:37.560Z,54.80
2018-02-24T07:50:05.792Z,54.70
2018-02-24T07:52:35.428Z,54.80
2018-02-24T07:55:04.052Z,53.80
2018-02-24T07:57:32.280Z,53.80
2018-02-24T08:00:01.717Z,53.60
2018-02-24T08:02:29.960Z,53.40
2018-02-24T08:04:58.587Z,52.30
2018-02-24T08:07:27.084Z,52.00
2018-02-24T08:09:56.816Z,52.60
2018-02-24T08:14:55.879Z,51.70
2018-02-24T08:17:24.876Z,51.40
2018-02-24T08:19:53.102Z,50.30
2018-02-24T08:24:52.133Z,50.20
2018-02-24T08:27:20.359Z,48.90
2018-02-24T08:34:49.232Z,45.60
2018-02-24T08:37:18.152Z,43.90
2018-02-24T08:39:46.385Z,41.90
2018-02-24T08:42:16.120Z,38.20
2018-02-24T08:44:45.356Z,36.70
2018-02-24T08:47:14.370Z,33.50
2018-02-24T08:49:42.620Z,31.30
2018-02-24T08:52:11.094Z,30.00
2018-02-24T08:54:39.376Z,29.20
2018-02-24T08:59:38.427Z,26.90
2018-02-24T09:02:07.056Z,26.60
2018-02-24T09:04:35.289Z,26.20
2018-02-24T09:07:04.531Z,25.80
2018-02-24T09:09:34.271Z,25.90
2018-02-24T09:12:02.500Z,25.40
2018-02-24T09:14:32.543Z,24.70
2018-02-24T09:17:01.544Z,24.40
2018-02-24T09:19:29.785Z,24.00
2018-02-24T09:21:59.108Z,23.80
2018-02-24T09:24:28.124Z,23.80
2018-02-24T09:26:56.355Z,23.20
2018-02-24T09:29:24.729Z,23.50
2018-02-24T09:31:52.960Z,23.70
2018-02-24T09:34:21.193Z,22.60
2018-02-24T09:36:52.592Z,22.00
2018-02-24T09:39:21.592Z,21.70
2018-02-24T09:41:49.828Z,21.60
2018-02-24T09:44:18.988Z,21.10
2018-02-24T09:46:47.985Z,20.80
2018-02-24T09:49:16.222Z,21.00
2018-02-24T09:51:46.120Z,21.60
2018-02-24T09:54:14.369Z,20.90
2018-02-24T09:56:43.749Z,20.60
2018-02-24T09:59:12.345Z,20.50
2018-02-24T10:01:40.596Z,20.60
2018-02-24T10:04:08.886Z,20.40
2018-02-24T10:06:38.056Z,20.40
2018-02-24T10:09:07.061Z,20.90
2018-02-24T10:11:36.052Z,20.20
2018-02-24T10:14:05.216Z,19.90
2018-02-24T10:16:34.951Z,19.60
2018-02-24T10:21:33.088Z,19.00
2018-02-24T10:24:02.828Z,18.80
2018-02-24T10:26:31.828Z,19.40
2018-02-24T10:29:01.391Z,18.80
2018-02-24T10:31:29.632Z,18.70
2018-02-24T10:33:57.909Z,18.90
2018-02-24T10:36:27.515Z,19.10
2018-02-24T10:41:26.485Z,19.70
2018-02-24T10:43:55.899Z,19.10
2018-02-24T10:46:25.640Z,19.70
2018-02-24T10:51:29.834Z,19.80
2018-02-24T10:53:58.073Z,19.90
2018-02-24T10:56:27.254Z,19.90
2018-02-24T10:58:56.276Z,19.60
2018-02-24T11:01:24.512Z,19.30
2018-02-24T11:03:53.637Z,19.40
2018-02-24T11:06:22.635Z,19.50
2018-02-24T11:08:50.868Z,19.30
2018-02-24T11:11:20.621Z,19.40
2018-02-24T11:13:49.559Z,19.30
2018-02-24T11:16:18.176Z,18.80
2018-02-24T11:18:47.391Z,18.90
2018-02-24T11:21:16.401Z,19.10
2018-02-24T11:23:45.420Z,20.10
2018-02-24T11:26:14.664Z,19.10
2018-02-24T11:28:43.680Z,18.80
2018-02-24T11:31:12.668Z,18.30
2018-02-24T11:33:42.216Z,18.40
2018-02-24T11:36:11.960Z,18.70
2018-02-24T11:38:40.196Z,18.50
2018-02-24T11:41:10.224Z,18.50
2018-02-24T11:43:38.462Z,18.40
2018-02-24T11:46:06.694Z,18.40
2018-02-24T11:48:36.639Z,18.90
2018-02-24T11:51:06.368Z,18.50
2018-02-24T11:53:34.989Z,18.90
2018-02-24T11:56:04.868Z,19.00
2018-02-24T11:58:33.108Z,19.00
2018-02-24T12:01:01.348Z,18.70
2018-02-24T12:03:30.051Z,18.80
2018-02-24T12:08:27.786Z,18.50
2018-02-24T12:10:57.247Z,18.80
2018-02-24T12:15:55.694Z,19.10
2018-02-24T12:18:24.151Z,19.30
2018-02-24T12:20:52.764Z,19.50
2018-02-24T12:25:50.981Z,19.90
2018-02-24T12:28:19.200Z,20.20
2018-02-24T12:30:48.581Z,20.40
2018-02-24T12:33:17.868Z,20.30
2018-02-24T12:35:46.501Z,20.60
2018-02-24T12:38:14.732Z,20.00
2018-02-24T12:40:43.688Z,20.30
2018-02-24T12:43:13.456Z,20.10
2018-02-24T12:45:41.692Z,20.60
2018-02-24T12:48:10.228Z,20.80
2018-02-24T12:50:39.221Z,21.40
2018-02-24T12:53:07.448Z,20.90
2018-02-24T12:55:37.556Z,21.70
2018-02-24T12:58:05.776Z,21.40
2018-02-24T13:00:34.017Z,21.10
2018-02-24T13:03:02.548Z,20.70
2018-02-24T13:05:30.789Z,21.20
2018-02-24T13:08:00.179Z,20.50
2018-02-24T13:10:28.755Z,20.70
2018-02-24T13:12:56.968Z,21.60
2018-02-24T13:15:25.197Z,21.90
2018-02-24T13:17:53.612Z,21.60
2018-02-24T13:20:23.340Z,21.80
2018-02-24T13:22:51.569Z,21.50
2018-02-24T13:25:24.690Z,22.00
2018-02-24T13:27:53.681Z,22.60
2018-02-24T13:30:21.900Z,22.90
2018-02-24T13:32:51.045Z,24.10
2018-02-24T13:35:20.024Z,25.40
2018-02-24T13:37:48.263Z,25.80
2018-02-24T13:42:47.736Z,26.50
2018-02-24T13:45:16.590Z,27.40
2018-02-24T13:47:45.899Z,27.60
2018-02-24T13:50:14.121Z,27.50
2018-02-24T13:52:43.107Z,27.90
2018-02-24T13:55:12.679Z,28.00
2018-02-24T13:57:42.345Z,27.80
2018-02-24T14:00:10.564Z,28.30
2018-02-24T14:02:40.632Z,28.30
2018-02-24T14:05:08.907Z,28.50
2018-02-24T14:07:38.640Z,29.60
2018-02-24T14:10:07.869Z,30.50
2018-02-24T14:12:36.856Z,30.90
2018-02-24T14:17:35.636Z,33.00
2018-02-24T14:20:05.368Z,35.60
2018-02-24T14:22:33.996Z,36.30
2018-02-24T14:25:04.536Z,37.00
2018-02-24T14:27:33.535Z,38.30
2018-02-24T14:30:01.776Z,37.90
2018-02-24T14:32:31.005Z,40.10
2018-02-24T14:35:00.033Z,40.00
2018-02-24T14:37:28.960Z,41.50
2018-02-24T14:39:57.446Z,42.60
2018-02-24T14:42:26.432Z,42.90
2018-02-24T14:47:24.988Z,43.50
2018-02-24T14:49:53.652Z,44.70
2018-02-24T14:54:54.812Z,45.00
2018-02-24T14:59:53.677Z,46.50
2018-02-24T16:19:57.204Z,54.80
2018-02-24T16:29:55.181Z,54.40
2018-02-24T16:32:24.204Z,55.00
2018-02-24T16:34:53.196Z,55.10
2018-02-24T16:37:22.193Z,55.40
2018-02-24T16:39:50.453Z,55.60
2018-02-24T16:42:18.688Z,56.10
2018-02-24T16:44:47.692Z,56.10
2018-02-24T16:49:46.172Z,55.70
2018-02-24T16:52:14.394Z,55.50
2018-02-24T16:54:43.040Z,55.60
2018-02-24T16:57:11.260Z,55.30
2018-02-24T16:59:39.484Z,55.80
2018-02-24T17:02:08.500Z,55.60
2018-02-24T17:07:06.592Z,54.30
2018-02-24T17:09:35.258Z,54.20
2018-02-24T17:12:03.509Z,54.30
2018-02-24T17:14:31.752Z,54.10
2018-02-24T17:24:28.637Z,53.60
2018-02-24T17:26:57.657Z,53.30
2018-02-24T17:29:25.875Z,53.50
2018-02-24T17:31:54.122Z,52.80
2018-02-24T17:36:52.628Z,52.60
2018-02-24T17:41:50.291Z,52.50
2018-02-24T17:46:48.773Z,52.80
2018-02-24T17:51:46.885Z,51.90
2018-02-24T17:54:15.492Z,51.70
2018-02-24T17:56:44.483Z,52.00
2018-02-24T17:59:13.128Z,51.20
2018-02-24T18:01:41.341Z,51.50
2018-02-24T18:04:09.568Z,50.90
2018-02-24T18:09:07.676Z,52.00
2018-02-24T18:11:37.212Z,52.50
2018-02-24T18:14:05.820Z,51.80
2018-02-24T18:16:34.824Z,51.50
2018-02-24T18:19:03.108Z,51.10
2018-02-24T18:24:00.792Z,50.40
2018-02-24T18:26:29.501Z,50.40
2018-02-24T18:28:58.500Z,50.10
2018-02-24T18:31:26.728Z,50.40
2018-02-24T18:36:25.644Z,51.20
2018-02-24T18:38:53.917Z,50.90
2018-02-24T18:41:22.157Z,50.80
2018-02-24T18:43:51.904Z,51.30
2018-02-24T18:46:20.120Z,50.70
2018-02-24T18:48:48.364Z,50.50
2018-02-24T18:51:17.391Z,50.50
2018-02-24T18:53:45.997Z,50.80
2018-02-24T18:56:14.212Z,50.90
2018-02-24T18:58:43.976Z,51.00
2018-02-24T19:01:12.191Z,57.00
2018-02-24T19:03:40.408Z,50.50
2018-02-24T19:06:08.652Z,50.00
2018-02-24T19:08:36.876Z,50.40
2018-02-24T19:11:05.141Z,50.40
2018-02-24T19:16:02.878Z,50.30
2018-02-24T19:18:31.110Z,50.10
2018-02-24T19:20:59.354Z,50.00
2018-02-24T19:25:57.072Z,50.50
2018-02-24T19:28:26.052Z,51.20
2018-02-24T19:30:55.443Z,50.90
2018-02-24T19:33:23.660Z,50.10
2018-02-24T19:38:21.748Z,50.40
2018-02-24T19:40:49.960Z,50.70
2018-02-24T19:43:18.185Z,50.90
2018-02-24T19:45:47.965Z,51.50
2018-02-24T19:48:16.185Z,50.60
2018-02-24T19:50:44.399Z,50.80
2018-02-24T19:53:12.656Z,51.10
2018-02-24T19:58:10.742Z,51.70
2018-02-24T20:00:39.780Z,51.90
2018-02-24T20:03:08.760Z,51.20
2018-02-24T20:23:04.536Z,52.60
2018-02-24T20:25:33.928Z,52.70
2018-02-24T20:28:02.169Z,53.00
2018-02-24T20:30:31.970Z,53.10
2018-02-24T20:33:00.181Z,53.30
2018-02-24T20:35:28.426Z,54.00
2018-02-24T20:40:26.317Z,53.20
2018-02-24T20:42:54.532Z,53.30
2018-02-24T20:47:52.632Z,53.10
2018-02-24T20:50:20.852Z,52.70
2018-02-24T20:52:49.129Z,52.60
2018-02-24T20:57:47.212Z,52.70
2018-02-24T21:00:16.240Z,53.50
2018-02-24T21:02:45.224Z,52.80
2018-02-24T21:05:13.443Z,52.50
2018-02-24T21:07:42.936Z,52.10
2018-02-24T21:12:40.597Z,52.00
2018-02-24T21:20:08.521Z,52.30
2018-02-24T21:22:37.212Z,52.50
2018-02-24T21:27:36.393Z,52.60
2018-02-24T21:32:34.749Z,53.30
2018-02-24T21:35:03.006Z,53.10
2018-02-24T21:37:31.745Z,52.60
2018-02-24T21:40:01.115Z,52.50
2018-02-24T21:42:29.348Z,52.70
2018-02-24T21:47:29.244Z,52.50
2018-02-24T21:49:58.236Z,53.60
2018-02-24T21:52:26.664Z,52.60
2018-02-24T21:54:55.640Z,53.00
2018-02-24T21:57:23.857Z,52.80
2018-02-24T21:59:52.640Z,53.00
2018-02-24T22:04:52.765Z,53.50
2018-02-24T22:07:21.141Z,53.10
2018-02-24T22:09:49.356Z,53.30
2018-02-24T22:14:47.964Z,53.10
2018-02-24T22:17:19.960Z,52.90
2018-02-24T22:19:49.259Z,52.90
2018-02-24T22:22:18.996Z,53.20
2018-02-24T22:24:47.994Z,53.70
2018-02-24T22:27:16.644Z,53.20
2018-02-24T22:29:45.248Z,53.50
2018-02-24T22:32:13.468Z,53.40
2018-02-24T22:34:42.656Z,53.20
2018-02-24T22:37:11.640Z,53.40
2018-02-24T22:39:39.848Z,53.50
2018-02-24T22:42:08.479Z,53.40
2018-02-24T22:47:06.141Z,53.40
2018-02-24T22:49:34.425Z,53.20
2018-02-24T22:52:04.152Z,53.60
2018-02-24T22:54:33.160Z,53.90
2018-02-24T22:57:01.410Z,53.50
2018-02-24T22:59:30.404Z,53.90
2018-02-24T23:01:59.034Z,53.50
2018-02-24T23:04:27.287Z,53.60
2018-02-24T23:06:55.500Z,53.90
2018-02-24T23:09:25.223Z,53.80
2018-02-24T23:14:23.325Z,53.90
2018-02-24T23:16:52.305Z,54.50
2018-02-24T23:21:51.724Z,53.80
2018-02-24T23:24:19.937Z,54.20
2018-02-24T23:26:48.229Z,53.80
2018-02-24T23:29:16.452Z,54.30
2018-02-24T23:31:45.076Z,54.30
2018-02-24T23:36:42.776Z,54.10
2018-02-24T23:39:10.987Z,53.80
2018-02-24T23:41:39.241Z,54.00
2018-02-24T23:44:07.459Z,53.80
2018-02-24T23:46:36.813Z,53.60
2018-02-24T23:49:05.064Z,53.90
2018-02-24T23:51:33.285Z,54.20
2018-02-24T23:54:01.517Z,54.50
2018-02-24T23:56:30.500Z,54.40
2018-02-24T23:58:59.871Z,54.40
